Time,TemperatureF,DewpointF,PressureIn,WindDirection,WindDirectionDegrees,WindSpeedMPH,WindSpeedGustMPH,Humidity,HourlyPrecipIn,Conditions,Clouds,dailyrainin,SoftwareType,DateUTC
2013-07-26 00:01:00,63.1,60.5,29.94,NE,45,8.5,8.5,91,0.20,RA,,0.00,WeatherDisplay:10.37,2013-07-26 04:01:00,
2013-07-26 00:03:00,63.1,60.5,29.94,North,0,5.2,8.1,91,0.21,RA,,0.01,WeatherDisplay:10.37,2013-07-26 04:03:00,
2013-07-26 00:08:00,63.1,60.5,29.94,NNE,22,3.1,3.5,91,0.23,RA,,0.04,WeatherDisplay:10.37,2013-07-26 04:08:00,
2013-07-26 00:13:00,63.0,60.3,29.94,NE,45,2.2,5.8,91,0.01,RA,,0.06,WeatherDisplay:10.37,2013-07-26 04:13:00,
2013-07-26 00:18:00,63.0,60.6,29.93,North,0,4.7,4.7,92,0.04,RA,,0.08,WeatherDisplay:10.37,2013-07-26 04:18:00,
2013-07-26 00:23:00,63.0,60.6,29.93,NNW,338,6.2,6.2,92,0.04,RA,,0.09,WeatherDisplay:10.37,2013-07-26 04:23:00,
2013-07-26 00:28:00,63.0,60.6,29.93,NE,45,1.8,3.5,92,0.05,RA,,0.10,WeatherDisplay:10.37,2013-07-26 04:28:00,
2013-07-26 00:33:00,63.0,60.6,29.93,North,0,1.8,2.3,92,0.05,RA,,0.10,WeatherDisplay:10.37,2013-07-26 04:33:00,
2013-07-26 00:38:00,63.0,60.3,29.93,NE,45,1.6,3.5,91,0.04,,,0.10,WeatherDisplay:10.37,2013-07-26 04:38:00,
2013-07-26 00:43:00,63.0,60.6,29.93,NNE,22,2.4,3.5,92,0.04,RA,,0.11,WeatherDisplay:10.37,2013-07-26 04:43:00,
2013-07-26 00:48:00,63.0,60.6,29.93,NNE,22,2.0,2.3,92,0.02,RA,,0.13,WeatherDisplay:10.37,2013-07-26 04:48:00,
2013-07-26 00:53:00,63.0,60.3,29.93,NE,45,1.4,3.5,91,0.26,RA,,0.14,WeatherDisplay:10.37,2013-07-26 04:53:00,
2013-07-26 00:58:00,63.0,60.6,29.92,North,0,3.1,3.5,92,0.18,RA,,0.15,WeatherDisplay:10.37,2013-07-26 04:58:00,
2013-07-26 01:03:00,63.0,60.6,29.92,North,0,2.0,4.6,92,0.15,RA,,0.16,WeatherDisplay:10.37,2013-07-26 05:03:00,
2013-07-26 01:08:00,63.1,60.8,29.92,North,0,2.0,2.3,92,0.14,RA,,0.17,WeatherDisplay:10.37,2013-07-26 05:08:00,
2013-07-26 01:13:00,63.1,60.8,29.92,North,0,1.4,4.6,92,0.12,RA,,0.17,WeatherDisplay:10.37,2013-07-26 05:13:00,
2013-07-26 01:18:00,63.1,60.8,29.91,NNE,22,1.8,2.3,92,0.10,RA,,0.18,WeatherDisplay:10.37,2013-07-26 05:18:00,
2013-07-26 01:23:00,63.1,60.8,29.91,North,0,3.3,3.3,92,0.09,RA,,0.18,WeatherDisplay:10.37,2013-07-26 05:23:00,
2013-07-26 01:28:00,63.3,61.0,29.91,NNE,22,1.8,2.3,92,0.08,,,0.18,WeatherDisplay:10.37,2013-07-26 05:28:00,
2013-07-26 01:33:00,63.3,61.0,29.91,NNE,22,1.8,1.8,92,0.08,CLR,,0.18,WeatherDisplay:10.37,2013-07-26 05:33:00,
2013-07-26 01:38:00,63.3,61.0,29.91,NNW,338,4.7,4.7,92,0.08,CLR,,0.19,WeatherDisplay:10.37,2013-07-26 05:38:00,
2013-07-26 01:43:00,63.5,61.1,29.91,NE,45,1.4,3.5,92,0.08,RA,,0.19,WeatherDisplay:10.37,2013-07-26 05:43:00,
2013-07-26 01:48:00,63.5,61.1,29.91,ESE,112,2.0,2.3,92,0.07,RA,,0.19,WeatherDisplay:10.37,2013-07-26 05:48:00,
2013-07-26 01:53:00,63.7,61.3,29.91,NE,45,2.9,2.9,92,0.05,CLR,,0.19,WeatherDisplay:10.37,2013-07-26 05:53:00,
2013-07-26 01:58:00,63.7,61.3,29.91,NNE,22,0.5,3.5,92,0.04,CLR,,0.19,WeatherDisplay:10.37,2013-07-26 05:58:00,
2013-07-26 02:03:00,63.7,61.3,29.91,North,0,1.1,2.3,92,0.03,CLR,,0.19,WeatherDisplay:10.37,2013-07-26 06:03:00,
2013-07-26 02:08:00,63.7,61.3,29.91,North,0,0.9,2.3,92,0.03,RA,,0.20,WeatherDisplay:10.37,2013-07-26 06:08:00,
2013-07-26 02:13:00,63.7,61.3,29.91,NNE,22,2.9,2.9,92,0.03,RA,,0.20,WeatherDisplay:10.37,2013-07-26 06:13:00,
2013-07-26 02:18:00,63.7,61.3,29.90,NE,45,2.6,2.6,92,0.03,RA,,0.21,WeatherDisplay:10.37,2013-07-26 06:18:00,
2013-07-26 02:23:00,63.9,61.5,29.90,North,0,1.8,2.3,92,0.03,RA,,0.21,WeatherDisplay:10.37,2013-07-26 06:23:00,
2013-07-26 02:28:00,63.9,61.5,29.90,NNE,22,0.9,2.3,92,0.03,,,0.21,WeatherDisplay:10.37,2013-07-26 06:28:00,
2013-07-26 02:33:00,63.9,61.5,29.90,NE,45,1.6,1.6,92,0.04,RA,,0.22,WeatherDisplay:10.37,2013-07-26 06:33:00,
2013-07-26 02:38:00,64.0,61.7,29.90,North,0,2.0,5.8,92,0.05,RA,,0.23,WeatherDisplay:10.37,2013-07-26 06:38:00,
2013-07-26 02:43:00,64.0,61.7,29.90,NE,45,3.3,3.5,92,0.05,RA,,0.24,WeatherDisplay:10.37,2013-07-26 06:43:00,
2013-07-26 02:48:00,64.0,61.7,29.90,NNE,22,2.4,2.4,92,0.06,RA,,0.26,WeatherDisplay:10.37,2013-07-26 06:48:00,
2013-07-26 02:53:00,64.0,61.7,29.90,East,90,1.6,2.3,92,0.08,RA,,0.27,WeatherDisplay:10.37,2013-07-26 06:53:00,
2013-07-26 02:58:00,64.0,61.7,29.90,NE,45,1.8,2.3,92,0.10,RA,,0.29,WeatherDisplay:10.37,2013-07-26 06:58:00,
2013-07-26 03:03:00,64.0,61.7,29.89,NNW,338,0.7,2.3,92,0.12,RA,,0.31,WeatherDisplay:10.37,2013-07-26 07:03:00,
2013-07-26 03:08:00,64.0,61.7,29.89,NE,45,1.6,2.3,92,0.13,RA,,0.34,WeatherDisplay:10.37,2013-07-26 07:08:00,
2013-07-26 03:13:00,64.0,61.7,29.89,NNE,22,2.4,2.4,92,0.14,RA,,0.34,WeatherDisplay:10.37,2013-07-26 07:13:00,
2013-07-26 03:18:00,64.0,61.7,29.89,North,0,3.1,3.5,92,0.15,RA,,0.36,WeatherDisplay:10.37,2013-07-26 07:18:00,
2013-07-26 03:23:00,64.2,61.8,29.89,NW,315,2.9,2.9,92,0.17,RA,,0.39,WeatherDisplay:10.37,2013-07-26 07:23:00,
2013-07-26 03:28:00,64.2,61.8,29.88,NNE,22,1.6,2.3,92,0.18,RA,,0.39,WeatherDisplay:10.37,2013-07-26 07:28:00,
2013-07-26 03:33:00,64.2,61.8,29.88,ESE,112,2.4,3.5,92,0.17,RA,,0.39,WeatherDisplay:10.37,2013-07-26 07:33:00,
2013-07-26 03:38:00,64.2,61.8,29.88,North,0,1.1,4.6,92,0.17,RA,,0.41,WeatherDisplay:10.37,2013-07-26 07:38:00,
2013-07-26 03:43:00,64.2,61.8,29.88,NE,45,6.2,6.2,92,0.17,RA,,0.41,WeatherDisplay:10.37,2013-07-26 07:43:00,
2013-07-26 03:48:00,64.4,62.0,29.88,North,0,3.3,4.6,92,0.16,RA,,0.41,WeatherDisplay:10.37,2013-07-26 07:48:00,
2013-07-26 03:53:00,64.4,62.0,29.88,NNE,22,4.0,4.0,92,0.14,RA,,0.41,WeatherDisplay:10.37,2013-07-26 07:53:00,
2013-07-26 03:58:00,64.4,62.0,29.87,NNE,22,4.7,4.7,92,0.12,CLR,,0.41,WeatherDisplay:10.37,2013-07-26 07:58:00,
2013-07-26 04:03:00,64.4,62.0,29.87,East,90,3.3,3.3,92,0.11,RA,,0.43,WeatherDisplay:10.37,2013-07-26 08:03:00,
2013-07-26 04:08:00,64.4,62.0,29.87,NE,45,4.0,4.6,92,0.09,RA,,0.43,WeatherDisplay:10.37,2013-07-26 08:08:00,
2013-07-26 04:13:00,64.4,62.0,29.87,East,90,3.6,5.8,92,0.08,,,0.43,WeatherDisplay:10.37,2013-07-26 08:13:00,
2013-07-26 04:18:00,64.4,62.0,29.87,NNW,338,5.9,5.9,92,0.07,RA,,0.44,WeatherDisplay:10.37,2013-07-26 08:18:00,
2013-07-26 04:23:00,64.6,62.2,29.87,NNW,338,7.6,7.6,92,0.07,RA,,0.46,WeatherDisplay:10.37,2013-07-26 08:23:00,
2013-07-26 04:28:00,64.6,62.2,29.87,North,0,1.1,3.5,92,0.07,RA,,0.46,WeatherDisplay:10.37,2013-07-26 08:28:00,
2013-07-26 04:33:00,64.6,62.2,29.87,NW,315,2.9,4.6,92,0.08,RA,,0.48,WeatherDisplay:10.37,2013-07-26 08:33:00,
2013-07-26 04:38:00,64.6,62.2,29.87,NE,45,2.0,2.4,92,0.07,RA,,0.48,WeatherDisplay:10.37,2013-07-26 08:38:00,
2013-07-26 04:43:00,64.8,62.4,29.87,NNE,22,1.4,3.5,92,0.07,,,0.48,WeatherDisplay:10.37,2013-07-26 08:43:00,
2013-07-26 04:48:00,64.8,62.4,29.87,NNW,338,3.8,4.6,92,0.07,RA,,0.50,WeatherDisplay:10.37,2013-07-26 08:48:00,
2013-07-26 04:53:00,64.8,62.4,29.87,North,0,4.5,4.5,92,0.08,RA,,0.50,WeatherDisplay:10.37,2013-07-26 08:53:00,
2013-07-26 04:58:00,64.8,62.4,29.87,NE,45,2.9,2.9,92,0.09,RA,,0.53,WeatherDisplay:10.37,2013-07-26 08:58:00,
2013-07-26 05:03:00,64.8,62.4,29.86,North,0,7.8,7.8,92,0.12,RA,,0.55,WeatherDisplay:10.37,2013-07-26 09:03:00,
2013-07-26 05:08:00,64.8,62.4,29.86,North,0,2.0,4.6,92,0.13,RA,,0.56,WeatherDisplay:10.37,2013-07-26 09:08:00,
2013-07-26 05:13:00,64.8,62.4,29.86,North,0,2.4,3.5,92,0.13,RA,,0.56,WeatherDisplay:10.37,2013-07-26 09:13:00,
2013-07-26 05:18:00,64.8,62.4,29.86,WNW,292,4.5,4.6,92,0.13,RA,,0.57,WeatherDisplay:10.37,2013-07-26 09:18:00,
2013-07-26 05:23:00,64.8,62.7,29.86,NE,45,1.8,3.5,93,0.11,RA,,0.57,WeatherDisplay:10.37,2013-07-26 09:23:00,
2013-07-26 05:28:00,64.8,62.7,29.85,NNW,338,2.4,5.8,93,0.11,RA,,0.58,WeatherDisplay:10.37,2013-07-26 09:28:00,
2013-07-26 05:33:00,64.8,62.7,29.85,NNW,338,2.2,5.8,93,0.10,RA,,0.58,WeatherDisplay:10.37,2013-07-26 09:33:00,
2013-07-26 05:38:00,64.8,62.7,29.85,NE,45,5.2,5.2,93,0.11,RA,,0.59,WeatherDisplay:10.37,2013-07-26 09:38:00,
2013-07-26 05:43:00,64.8,62.7,29.84,NNW,338,4.7,5.8,93,0.11,RA,,0.59,WeatherDisplay:10.37,2013-07-26 09:43:00,
2013-07-26 05:48:00,64.8,62.7,29.85,North,0,3.3,5.8,93,0.10,,,0.59,WeatherDisplay:10.37,2013-07-26 09:48:00,
2013-07-26 05:53:00,64.8,62.7,29.85,NW,315,7.8,7.8,93,0.10,RA,,0.60,WeatherDisplay:10.37,2013-07-26 09:53:00,
2013-07-26 05:58:00,64.8,62.7,29.85,NNW,338,4.0,4.6,93,0.09,RA,,0.60,WeatherDisplay:10.37,2013-07-26 09:58:00,
2013-07-26 06:03:00,64.8,62.7,29.85,NNE,22,4.7,4.7,93,0.05,CLR,,0.60,WeatherDisplay:10.37,2013-07-26 10:03:00,
2013-07-26 06:08:00,64.8,62.7,29.85,North,0,4.0,6.9,93,0.04,CLR,,0.60,WeatherDisplay:10.37,2013-07-26 10:08:00,
2013-07-26 06:13:00,64.8,62.7,29.84,NNE,22,1.1,4.6,93,0.05,RA,,0.61,WeatherDisplay:10.37,2013-07-26 10:13:00,
2013-07-26 06:18:00,64.8,62.7,29.85,NNW,338,2.0,2.3,93,0.04,RA,,0.61,WeatherDisplay:10.37,2013-07-26 10:18:00,
2013-07-26 06:23:00,64.8,62.7,29.85,WNW,292,3.1,4.6,93,0.04,,,0.61,WeatherDisplay:10.37,2013-07-26 10:23:00,
2013-07-26 06:28:00,64.8,62.7,29.85,NE,45,2.4,3.5,93,0.03,CLR,,0.61,WeatherDisplay:10.37,2013-07-26 10:28:00,
2013-07-26 06:33:00,64.8,62.7,29.85,North,0,2.4,4.6,93,0.04,RA,,0.62,WeatherDisplay:10.37,2013-07-26 10:33:00,
2013-07-26 06:38:00,64.8,62.7,29.85,North,0,3.3,4.6,93,0.03,RA,,0.62,WeatherDisplay:10.37,2013-07-26 10:38:00,
2013-07-26 06:43:00,64.8,62.7,29.84,North,0,7.4,7.4,93,0.03,CLR,,0.62,WeatherDisplay:10.37,2013-07-26 10:43:00,
2013-07-26 06:48:00,64.6,62.5,29.84,North,0,5.6,8.1,93,0.03,CLR,,0.62,WeatherDisplay:10.37,2013-07-26 10:48:00,
2013-07-26 06:53:00,64.4,62.3,29.83,North,0,4.7,5.8,93,0.03,RA,,0.63,WeatherDisplay:10.37,2013-07-26 10:53:00,
2013-07-26 06:58:00,64.4,62.3,29.83,ENE,68,6.0,6.0,93,0.03,RA,,0.63,WeatherDisplay:10.37,2013-07-26 10:58:00,
2013-07-26 07:03:00,64.4,62.3,29.83,NNE,22,2.2,3.5,93,0.04,RA,,0.64,WeatherDisplay:10.37,2013-07-26 11:03:00,
2013-07-26 07:08:00,64.2,62.2,29.83,NNW,338,1.8,8.1,93,0.04,RA,,0.64,WeatherDisplay:10.37,2013-07-26 11:08:00,
2013-07-26 07:13:00,64.0,62.0,29.83,NNW,338,2.2,4.6,93,0.03,,,0.64,WeatherDisplay:10.37,2013-07-26 11:13:00,
2013-07-26 07:18:00,64.0,62.0,29.82,NNE,22,2.4,6.9,93,0.03,CLR,,0.64,WeatherDisplay:10.37,2013-07-26 11:18:00,
2013-07-26 07:23:00,63.9,61.8,29.83,NNE,22,2.0,2.3,93,0.04,RA,,0.65,WeatherDisplay:10.37,2013-07-26 11:23:00,
2013-07-26 07:28:00,63.9,61.8,29.82,NE,45,6.7,11.5,93,0.04,RA,,0.65,WeatherDisplay:10.37,2013-07-26 11:28:00,
2013-07-26 07:33:00,63.9,61.8,29.83,NNW,338,5.6,13.8,93,0.04,RA,,0.66,WeatherDisplay:10.37,2013-07-26 11:33:00,
2013-07-26 07:38:00,63.9,61.8,29.82,NNE,22,4.3,9.2,93,0.04,RA,,0.66,WeatherDisplay:10.37,2013-07-26 11:38:00,
2013-07-26 07:43:00,63.9,61.8,29.82,North,0,9.2,9.2,93,0.05,RA,,0.67,WeatherDisplay:10.37,2013-07-26 11:43:00,
2013-07-26 07:48:00,64.0,62.0,29.83,NNW,338,4.7,9.2,93,0.05,RA,,0.67,WeatherDisplay:10.37,2013-07-26 11:48:00,
2013-07-26 07:53:00,64.0,62.0,29.82,NE,45,6.9,6.9,93,0.04,,,0.67,WeatherDisplay:10.37,2013-07-26 11:53:00,
2013-07-26 07:58:00,64.0,62.0,29.82,NNW,338,12.3,12.3,93,0.05,RA,,0.68,WeatherDisplay:10.37,2013-07-26 11:58:00,
2013-07-26 08:03:00,64.0,62.0,29.82,ENE,68,2.9,2.9,93,0.04,RA,,0.69,WeatherDisplay:10.37,2013-07-26 12:03:00,
2013-07-26 08:08:00,64.2,62.2,29.82,WNW,292,3.6,9.2,93,0.06,RA,,0.71,WeatherDisplay:10.37,2013-07-26 12:08:00,
2013-07-26 08:13:00,64.2,62.2,29.82,NNE,22,4.0,5.8,93,0.08,RA,,0.72,WeatherDisplay:10.37,2013-07-26 12:13:00,
2013-07-26 08:18:00,64.4,62.3,29.82,NE,45,1.1,3.5,93,0.09,RA,,0.74,WeatherDisplay:10.37,2013-07-26 12:18:00,
2013-07-26 08:23:00,64.4,62.3,29.82,ESE,112,2.9,3.5,93,0.10,RA,,0.75,WeatherDisplay:10.37,2013-07-26 12:23:00,
2013-07-26 08:28:00,64.4,62.3,29.82,NW,315,3.3,8.1,93,0.10,RA,,0.75,WeatherDisplay:10.37,2013-07-26 12:28:00,
2013-07-26 08:33:00,64.4,62.3,29.82,NW,315,3.8,10.4,93,0.10,RA,,0.76,WeatherDisplay:10.37,2013-07-26 12:33:00,
2013-07-26 08:38:00,64.6,62.5,29.82,NNW,338,3.8,6.9,93,0.10,RA,,0.76,WeatherDisplay:10.37,2013-07-26 12:38:00,
2013-07-26 08:43:00,64.8,62.7,29.82,NW,315,7.1,7.1,93,0.10,RA,,0.77,WeatherDisplay:10.37,2013-07-26 12:43:00,
2013-07-26 08:48:00,64.8,62.7,29.83,NNW,338,8.5,8.5,93,0.11,RA,,0.78,WeatherDisplay:10.37,2013-07-26 12:48:00,
2013-07-26 08:53:00,64.8,62.7,29.83,WNW,292,6.7,9.2,93,0.11,RA,,0.78,WeatherDisplay:10.37,2013-07-26 12:53:00,
2013-07-26 08:58:00,64.9,62.9,29.83,North,0,6.0,6.0,93,0.11,RA,,0.79,WeatherDisplay:10.37,2013-07-26 12:58:00,
2013-07-26 09:03:00,64.9,62.9,29.83,North,0,4.5,6.9,93,0.13,RA,,0.82,WeatherDisplay:10.37,2013-07-26 13:03:00,
2013-07-26 09:08:00,65.1,63.0,29.83,NW,315,4.0,9.2,93,0.14,RA,,0.84,WeatherDisplay:10.37,2013-07-26 13:08:00,
2013-07-26 09:13:00,65.1,63.0,29.83,NNW,338,4.9,5.8,93,0.14,RA,,0.86,WeatherDisplay:10.37,2013-07-26 13:13:00,
2013-07-26 09:18:00,65.1,63.0,29.83,NW,315,7.6,7.6,93,0.15,RA,,0.89,WeatherDisplay:10.37,2013-07-26 13:18:00,
2013-07-26 09:23:00,65.3,63.2,29.83,SE,135,1.1,3.5,93,0.17,RA,,0.92,WeatherDisplay:10.37,2013-07-26 13:23:00,
2013-07-26 09:28:00,65.3,63.2,29.83,WNW,292,3.3,8.1,93,0.19,RA,,0.93,WeatherDisplay:10.37,2013-07-26 13:28:00,
2013-07-26 09:33:00,65.3,63.2,29.83,ENE,68,4.7,4.7,93,0.17,RA,,0.94,WeatherDisplay:10.37,2013-07-26 13:33:00,
2013-07-26 09:38:00,65.1,63.0,29.83,WNW,292,3.8,8.1,93,0.18,RA,,0.94,WeatherDisplay:10.37,2013-07-26 13:38:00,
2013-07-26 09:43:00,65.1,62.7,29.82,NE,45,1.8,8.1,92,0.17,RA,,0.94,WeatherDisplay:10.37,2013-07-26 13:43:00,
2013-07-26 09:48:00,65.1,62.7,29.82,NW,315,10.0,10.4,92,0.17,RA,,0.95,WeatherDisplay:10.37,2013-07-26 13:48:00,
2013-07-26 09:53:00,65.3,62.9,29.81,NNW,338,5.4,8.1,92,0.17,RA,,0.95,WeatherDisplay:10.37,2013-07-26 13:53:00,
2013-07-26 09:58:00,65.5,63.1,29.81,NNW,338,4.7,8.1,92,0.16,CLR,,0.95,WeatherDisplay:10.37,2013-07-26 13:58:00,
2013-07-26 10:03:00,65.5,63.1,29.80,West,270,4.7,9.2,92,0.14,CLR,,0.95,WeatherDisplay:10.37,2013-07-26 14:03:00,
2013-07-26 10:08:00,65.7,63.0,29.80,NNE,22,3.8,4.6,91,0.11,CLR,,0.95,WeatherDisplay:10.37,2013-07-26 14:08:00,
2013-07-26 10:13:00,65.8,63.1,29.81,North,0,5.4,10.4,91,0.09,CLR,,0.95,WeatherDisplay:10.37,2013-07-26 14:13:00,
2013-07-26 10:18:00,65.8,63.5,29.81,ENE,68,4.3,8.1,92,0.07,CLR,,0.95,WeatherDisplay:10.37,2013-07-26 14:18:00,
2013-07-26 10:23:00,65.8,63.1,29.81,NNW,338,1.4,8.1,91,0.03,CLR,,0.95,WeatherDisplay:10.37,2013-07-26 14:23:00,
2013-07-26 10:28:00,65.7,63.0,29.82,North,0,9.9,9.9,91,0.02,CLR,,0.95,WeatherDisplay:10.37,2013-07-26 14:28:00,
2013-07-26 10:33:00,65.7,62.6,29.82,NNE,22,6.2,11.5,90,0.02,CLR,,0.95,WeatherDisplay:10.37,2013-07-26 14:33:00,
2013-07-26 10:38:00,65.5,62.5,29.82,NNW,338,5.2,6.9,90,0.01,CLR,,0.95,WeatherDisplay:10.37,2013-07-26 14:38:00,
2013-07-26 10:43:00,65.5,62.5,29.82,NNE,22,6.2,8.7,90,0.01,CLR,,0.95,WeatherDisplay:10.37,2013-07-26 14:43:00,
2013-07-26 10:48:00,65.5,62.5,29.82,WNW,292,2.4,4.6,90,0.00,CLR,,0.95,WeatherDisplay:10.37,2013-07-26 14:48:00,
2013-07-26 10:53:00,65.5,62.5,29.82,NE,45,10.9,10.9,90,0.00,CLR,,0.95,WeatherDisplay:10.37,2013-07-26 14:53:00,
2013-07-26 10:58:00,65.5,62.5,29.82,North,0,9.0,9.0,90,0.00,CLR,,0.95,WeatherDisplay:10.37,2013-07-26 14:58:00,
2013-07-26 11:03:00,65.3,62.3,29.82,NE,45,3.6,3.6,90,0.00,CLR,,0.95,WeatherDisplay:10.37,2013-07-26 15:03:00,
2013-07-26 11:08:00,65.5,62.5,29.82,WSW,248,6.9,8.1,90,0.00,CLR,,0.95,WeatherDisplay:10.37,2013-07-26 15:08:00,
2013-07-26 11:13:00,65.5,62.5,29.82,NE,45,3.8,10.4,90,0.00,CLR,,0.95,WeatherDisplay:10.37,2013-07-26 15:13:00,
2013-07-26 11:18:00,65.7,62.6,29.82,West,270,3.1,6.9,90,0.01,RA,,0.96,WeatherDisplay:10.37,2013-07-26 15:18:00,
2013-07-26 11:23:00,65.5,62.5,29.82,North,0,9.7,9.7,90,0.01,RA,,0.96,WeatherDisplay:10.37,2013-07-26 15:23:00,
2013-07-26 11:28:00,65.5,62.5,29.82,NNW,338,7.1,15.0,90,0.01,,,0.96,WeatherDisplay:10.37,2013-07-26 15:28:00,
2013-07-26 11:33:00,65.5,62.5,29.82,NNW,338,4.7,6.9,90,0.01,CLR,,0.96,WeatherDisplay:10.37,2013-07-26 15:33:00,
2013-07-26 11:38:00,65.5,62.5,29.82,NE,45,3.6,5.8,90,0.01,CLR,,0.96,WeatherDisplay:10.37,2013-07-26 15:38:00,
2013-07-26 11:43:00,65.7,62.6,29.82,NW,315,7.8,7.8,90,0.01,CLR,,0.96,WeatherDisplay:10.37,2013-07-26 15:43:00,
2013-07-26 11:48:00,65.7,62.6,29.82,North,0,2.0,11.5,90,0.01,CLR,,0.96,WeatherDisplay:10.37,2013-07-26 15:48:00,
2013-07-26 11:53:00,65.7,62.6,29.82,North,0,3.3,9.2,90,0.01,CLR,,0.96,WeatherDisplay:10.37,2013-07-26 15:53:00,
2013-07-26 11:58:00,65.5,62.5,29.82,NE,45,4.7,6.9,90,0.01,CLR,,0.96,WeatherDisplay:10.37,2013-07-26 15:58:00,
2013-07-26 12:03:00,65.5,62.5,29.82,NNW,338,6.2,15.0,90,0.01,CLR,,0.96,WeatherDisplay:10.37,2013-07-26 16:03:00,
2013-07-26 12:08:00,65.5,62.5,29.81,North,0,11.4,11.4,90,0.01,CLR,,0.96,WeatherDisplay:10.37,2013-07-26 16:08:00,
2013-07-26 12:13:00,65.5,62.5,29.82,NNW,338,7.6,8.1,90,0.01,CLR,,0.96,WeatherDisplay:10.37,2013-07-26 16:13:00,
2013-07-26 12:18:00,65.5,62.5,29.81,NNW,338,5.4,10.4,90,0.00,CLR,,0.96,WeatherDisplay:10.37,2013-07-26 16:18:00,
2013-07-26 12:23:00,65.7,62.6,29.81,NW,315,6.0,10.4,90,0.00,CLR,,0.96,WeatherDisplay:10.37,2013-07-26 16:23:00,
2013-07-26 12:28:00,65.7,62.6,29.81,WNW,292,8.5,10.4,90,0.00,CLR,,0.96,WeatherDisplay:10.37,2013-07-26 16:28:00,
2013-07-26 12:33:00,65.5,62.5,29.81,NNW,338,6.0,6.9,90,0.00,CLR,,0.96,WeatherDisplay:10.37,2013-07-26 16:33:00,
2013-07-26 12:38:00,65.3,62.3,29.81,NW,315,4.3,10.4,90,0.00,CLR,,0.96,WeatherDisplay:10.37,2013-07-26 16:38:00,
2013-07-26 12:43:00,65.3,62.6,29.81,North,0,4.0,8.1,91,0.00,CLR,,0.96,WeatherDisplay:10.37,2013-07-26 16:43:00,
2013-07-26 12:48:00,65.5,62.5,29.82,North,0,3.1,6.9,90,0.00,CLR,,0.96,WeatherDisplay:10.37,2013-07-26 16:48:00,
2013-07-26 12:53:00,65.7,63.0,29.81,WNW,292,9.9,9.9,91,0.00,CLR,,0.96,WeatherDisplay:10.37,2013-07-26 16:53:00,
2013-07-26 12:58:00,65.5,62.5,29.82,NNW,338,12.8,12.8,90,0.00,CLR,,0.96,WeatherDisplay:10.37,2013-07-26 16:58:00,
2013-07-26 13:03:00,65.5,62.5,29.82,NW,315,4.0,5.8,90,0.00,CLR,,0.96,WeatherDisplay:10.37,2013-07-26 17:03:00,
2013-07-26 13:08:00,65.5,62.5,29.81,North,0,7.8,9.2,90,0.00,CLR,,0.96,WeatherDisplay:10.37,2013-07-26 17:08:00,
2013-07-26 13:13:00,65.5,62.5,29.81,NNW,338,3.6,11.5,90,0.00,CLR,,0.96,WeatherDisplay:10.37,2013-07-26 17:13:00,
2013-07-26 13:18:00,65.5,62.5,29.81,North,0,5.9,8.1,90,0.00,CLR,,0.96,WeatherDisplay:10.37,2013-07-26 17:18:00,
2013-07-26 13:23:00,65.5,62.5,29.81,West,270,4.5,4.6,90,0.00,CLR,,0.96,WeatherDisplay:10.37,2013-07-26 17:23:00,
2013-07-26 13:28:00,65.5,62.5,29.81,NW,315,6.0,11.5,90,0.00,CLR,,0.96,WeatherDisplay:10.37,2013-07-26 17:28:00,
2013-07-26 13:33:00,65.5,62.5,29.81,NNE,22,7.6,13.8,90,0.00,CLR,,0.96,WeatherDisplay:10.37,2013-07-26 17:33:00,
2013-07-26 13:38:00,65.5,62.8,29.81,NW,315,9.4,13.0,91,0.00,CLR,,0.96,WeatherDisplay:10.37,2013-07-26 17:38:00,
2013-07-26 13:43:00,65.8,63.1,29.81,NW,315,11.4,11.4,91,0.00,CLR,,0.96,WeatherDisplay:10.37,2013-07-26 17:43:00,
2013-07-26 13:48:00,65.8,63.1,29.81,NW,315,1.8,12.7,91,0.00,CLR,,0.96,WeatherDisplay:10.37,2013-07-26 17:48:00,
2013-07-26 13:53:00,65.8,63.1,29.81,North,0,9.0,11.5,91,0.00,CLR,,0.96,WeatherDisplay:10.37,2013-07-26 17:53:00,
2013-07-26 13:58:00,65.8,63.1,29.82,NNE,22,9.2,9.2,91,0.00,CLR,,0.96,WeatherDisplay:10.37,2013-07-26 17:58:00,
2013-07-26 14:03:00,65.8,63.1,29.82,SW,225,8.5,8.5,91,0.00,CLR,,0.96,WeatherDisplay:10.37,2013-07-26 18:03:00,
2013-07-26 14:08:00,65.8,63.1,29.82,NNW,338,9.7,9.7,91,0.00,CLR,,0.96,WeatherDisplay:10.37,2013-07-26 18:08:00,
2013-07-26 14:13:00,65.8,63.1,29.82,NNE,22,2.4,4.6,91,0.00,CLR,,0.96,WeatherDisplay:10.37,2013-07-26 18:13:00,
2013-07-26 14:18:00,65.8,63.5,29.82,NW,315,3.8,3.8,92,0.00,CLR,,0.96,WeatherDisplay:10.37,2013-07-26 18:18:00,
2013-07-26 14:23:00,66.0,63.6,29.82,NNW,338,9.2,11.5,92,0.00,CLR,,0.96,WeatherDisplay:10.37,2013-07-26 18:23:00,
2013-07-26 14:28:00,66.0,63.3,29.82,NW,315,4.7,6.9,91,0.00,CLR,,0.96,WeatherDisplay:10.37,2013-07-26 18:28:00,
2013-07-26 14:33:00,66.0,63.3,29.82,West,270,6.2,9.2,91,0.00,CLR,,0.96,WeatherDisplay:10.37,2013-07-26 18:33:00,
2013-07-26 14:38:00,66.0,63.3,29.83,NNE,22,6.9,6.9,91,0.01,RA,,0.97,WeatherDisplay:10.37,2013-07-26 18:38:00,
2013-07-26 14:43:00,66.2,63.5,29.83,WNW,292,7.6,7.6,91,0.01,RA,,0.97,WeatherDisplay:10.37,2013-07-26 18:43:00,
2013-07-26 14:48:00,66.2,63.5,29.83,NNW,338,2.6,6.9,91,0.01,,,0.97,WeatherDisplay:10.37,2013-07-26 18:48:00,
2013-07-26 14:53:00,66.2,63.5,29.83,NNW,338,3.8,3.8,91,0.01,CLR,,0.97,WeatherDisplay:10.37,2013-07-26 18:53:00,
2013-07-26 14:58:00,66.4,63.7,29.83,North,0,2.6,6.9,91,0.01,CLR,,0.97,WeatherDisplay:10.37,2013-07-26 18:58:00,
2013-07-26 15:03:00,66.6,63.9,29.83,North,0,5.2,5.8,91,0.01,CLR,,0.97,WeatherDisplay:10.37,2013-07-26 19:03:00,
2013-07-26 15:08:00,66.4,63.7,29.83,NW,315,1.6,3.5,91,0.02,RA,,0.98,WeatherDisplay:10.37,2013-07-26 19:08:00,
2013-07-26 15:13:00,66.4,63.7,29.83,WNW,292,9.9,9.9,91,0.02,RA,,0.98,WeatherDisplay:10.37,2013-07-26 19:13:00,
2013-07-26 15:18:00,66.4,63.7,29.84,NNW,338,3.1,5.8,91,0.02,CLR,,0.98,WeatherDisplay:10.37,2013-07-26 19:18:00,
2013-07-26 15:23:00,66.6,63.9,29.84,ENE,68,5.4,5.4,91,0.02,CLR,,0.98,WeatherDisplay:10.37,2013-07-26 19:23:00,
2013-07-26 15:28:00,66.6,63.9,29.84,NW,315,6.2,6.2,91,0.02,CLR,,0.98,WeatherDisplay:10.37,2013-07-26 19:28:00,
2013-07-26 15:33:00,66.6,63.9,29.84,NW,315,2.0,2.3,91,0.02,CLR,,0.98,WeatherDisplay:10.37,2013-07-26 19:33:00,
2013-07-26 15:38:00,66.6,63.9,29.84,North,0,3.3,4.6,91,0.01,CLR,,0.98,WeatherDisplay:10.37,2013-07-26 19:38:00,
2013-07-26 15:43:00,66.6,63.9,29.84,NE,45,6.2,6.2,91,0.02,RA,,0.99,WeatherDisplay:10.37,2013-07-26 19:43:00,
2013-07-26 15:49:00,66.6,63.9,29.84,SSW,202,4.9,4.9,91,0.02,RA,,0.99,WeatherDisplay:10.37,2013-07-26 19:49:00,
2013-07-26 15:54:00,66.7,64.0,29.84,NNW,338,5.6,5.8,91,0.03,RA,,1.00,WeatherDisplay:10.37,2013-07-26 19:54:00,
2013-07-26 15:59:00,66.9,64.2,29.85,NNW,338,4.0,8.1,91,0.03,RA,,1.00,WeatherDisplay:10.37,2013-07-26 19:59:00,
2013-07-26 16:04:00,66.9,64.2,29.85,NW,315,4.0,6.9,91,0.04,RA,,1.02,WeatherDisplay:10.37,2013-07-26 20:04:00,
2013-07-26 16:09:00,66.9,64.2,29.85,NNW,338,1.8,2.3,91,0.03,RA,,1.02,WeatherDisplay:10.37,2013-07-26 20:09:00,
2013-07-26 16:14:00,66.9,64.2,29.85,WSW,248,1.4,1.4,91,0.04,RA,,1.02,WeatherDisplay:10.37,2013-07-26 20:14:00,
2013-07-26 16:19:00,66.9,64.2,29.86,WNW,292,3.6,5.8,91,0.04,RA,,1.02,WeatherDisplay:10.37,2013-07-26 20:19:00,
2013-07-26 22:05:00,66.9,64.2,29.86,WNW,292,3.6,5.8,91,0.04,RA,,1.02,WeatherDisplay:10.37,2013-07-27 02:05:00,
2013-07-26 22:10:00,66.4,64.0,29.94,SW,225,1.1,1.1,92,0.19,RA,,1.18,WeatherDisplay:10.37,2013-07-27 02:10:00,
2013-07-26 22:15:00,66.4,64.0,29.94,West,270,0.5,0.5,92,0.19,RA,,1.18,WeatherDisplay:10.37,2013-07-27 02:15:00,
2013-07-26 22:20:00,66.4,64.0,29.95,SW,225,1.1,1.1,92,0.19,,,1.18,WeatherDisplay:10.37,2013-07-27 02:20:00,
2013-07-26 22:25:00,66.4,64.0,29.95,West,270,0.7,1.1,92,0.19,CLR,,1.18,WeatherDisplay:10.37,2013-07-27 02:25:00,
2013-07-26 22:30:00,66.4,64.0,29.95,SW,225,1.4,1.4,92,0.19,CLR,,1.18,WeatherDisplay:10.37,2013-07-27 02:30:00,
2013-07-26 22:35:00,66.4,64.0,29.95,West,270,0.5,0.5,92,0.19,CLR,,1.18,WeatherDisplay:10.37,2013-07-27 02:35:00,
2013-07-26 22:40:00,66.4,64.0,29.95,WSW,248,1.1,1.1,92,0.17,CLR,,1.18,WeatherDisplay:10.37,2013-07-27 02:40:00,
2013-07-26 22:45:00,66.2,63.8,29.95,SSW,202,0.5,1.1,92,0.17,CLR,,1.18,WeatherDisplay:10.37,2013-07-27 02:45:00,
2013-07-26 22:50:00,66.2,63.8,29.95,SSW,202,1.4,2.3,92,0.16,CLR,,1.18,WeatherDisplay:10.37,2013-07-27 02:50:00,
2013-07-26 22:55:00,66.2,63.8,29.95,WSW,248,0.0,0.0,92,0.16,CLR,,1.18,WeatherDisplay:10.37,2013-07-27 02:55:00,
2013-07-26 23:00:00,66.2,63.5,29.95,WSW,248,2.9,2.9,91,0.15,CLR,,1.18,WeatherDisplay:10.37,2013-07-27 03:00:00,
2013-07-26 23:05:00,66.2,63.8,29.95,West,270,0.5,0.5,92,0.15,CLR,,1.18,WeatherDisplay:10.37,2013-07-27 03:05:00,
2013-07-26 23:10:00,66.2,63.5,29.96,NW,315,0.2,2.3,91,0.00,CLR,,1.18,WeatherDisplay:10.37,2013-07-27 03:10:00,
2013-07-26 23:15:00,66.0,63.3,29.96,WSW,248,0.0,0.0,91,0.00,CLR,,1.18,WeatherDisplay:10.37,2013-07-27 03:15:00,
2013-07-26 23:20:00,65.8,63.1,29.96,WSW,248,0.7,1.1,91,0.00,CLR,,1.18,WeatherDisplay:10.37,2013-07-27 03:20:00,
2013-07-26 23:25:00,65.8,63.1,29.96,WSW,248,0.0,0.0,91,0.00,CLR,,1.18,WeatherDisplay:10.37,2013-07-27 03:25:00,
2013-07-26 23:30:00,65.8,63.1,29.96,SW,225,0.0,1.1,91,0.00,CLR,,1.18,WeatherDisplay:10.37,2013-07-27 03:30:00,
2013-07-26 23:35:00,65.7,63.0,29.96,WSW,248,0.0,1.1,91,0.00,CLR,,1.18,WeatherDisplay:10.37,2013-07-27 03:35:00,
2013-07-26 23:40:00,65.5,62.8,29.96,WSW,248,1.4,1.4,91,0.00,CLR,,1.18,WeatherDisplay:10.37,2013-07-27 03:40:00,
2013-07-26 23:41:00,65.5,62.8,29.96,WSW,248,1.4,1.4,91,0.00,CLR,,1.18,WeatherDisplay:10.37,2013-07-27 03:41:00,
2013-07-26 23:46:00,65.3,62.9,29.96,West,270,0.2,0.0,92,0.00,CLR,,1.18,WeatherDisplay:10.37,2013-07-27 03:46:00,
2013-07-26 23:51:00,65.3,62.6,29.96,WNW,292,0.5,0.5,91,0.00,CLR,,1.18,WeatherDisplay:10.37,2013-07-27 03:51:00,
2013-07-26 23:56:00,65.1,62.7,29.96,WSW,248,0.2,1.1,92,0.00,CLR,,1.18,WeatherDisplay:10.37,2013-07-27 03:56:00,